sensor_id;sensor_type;location;lat;lon;timestamp;pressure;altitude;pressure_sealevel;temperature;humidity
35649;BME280;21768;48.562;13.414;2022-08-19T00:01:25;96670.97;;;21.96;66.51
35649;BME280;21768;48.562;13.414;2022-08-19T00:03:52;96679.50;;;21.94;66.57
35649;BME280;21768;48.562;13.414;2022-08-19T00:06:17;96676.94;;;21.95;66.78
35649;BME280;21768;48.562;13.414;2022-08-19T00:08:43;96675.25;;;21.97;66.97
35649;BME280;21768;48.562;13.414;2022-08-19T00:11:09;96673.56;;;21.99;67.53
35649;BME280;21768;48.562;13.414;2022-08-19T00:13:34;96687.31;;;22.01;67.73
35649;BME280;21768;48.562;13.414;2022-08-19T00:16:01;96692.47;;;22.06;67.95
35649;BME280;21768;48.562;13.414;2022-08-19T00:18:27;96694.22;;;22.09;67.74
35649;BME280;21768;48.562;13.414;2022-08-19T00:20:52;96691.66;;;22.12;67.53
35649;BME280;21768;48.562;13.414;2022-08-19T00:23:18;96696.84;;;22.15;67.57
35649;BME280;21768;48.562;13.414;2022-08-19T00:25:44;96702.84;;;22.17;67.47
35649;BME280;21768;48.562;13.414;2022-08-19T00:28:09;96702.81;;;22.12;67.54
35649;BME280;21768;48.562;13.414;2022-08-19T00:30:36;96702.81;;;22.12;67.83
35649;BME280;21768;48.562;13.414;2022-08-19T00:33:02;96701.09;;;22.13;67.63
35649;BME280;21768;48.562;13.414;2022-08-19T00:35:28;96692.53;;;22.14;67.94
35649;BME280;21768;48.562;13.414;2022-08-19T00:37:54;96691.69;;;22.15;68.00
35649;BME280;21768;48.562;13.414;2022-08-19T00:40:20;96694.28;;;22.15;67.87
35649;BME280;21768;48.562;13.414;2022-08-19T00:42:46;96696.81;;;22.12;68.07
35649;BME280;21768;48.562;13.414;2022-08-19T00:45:16;96700.25;;;22.14;68.11
35649;BME280;21768;48.562;13.414;2022-08-19T00:47:43;96704.56;;;22.15;67.96
35649;BME280;21768;48.562;13.414;2022-08-19T00:50:10;96711.41;;;22.16;68.13
35649;BME280;21768;48.562;13.414;2022-08-19T00:52:40;96715.72;;;22.17;68.08
35649;BME280;21768;48.562;13.414;2022-08-19T00:55:09;96713.13;;;22.17;67.91
35649;BME280;21768;48.562;13.414;2022-08-19T00:57:39;96708.00;;;22.17;67.87
35649;BME280;21768;48.562;13.414;2022-08-19T01:00:10;96707.13;;;22.15;68.18
35649;BME280;21768;48.562;13.414;2022-08-19T01:02:37;96704.56;;;22.15;68.00
35649;BME280;21768;48.562;13.414;2022-08-19T01:05:06;96713.09;;;22.14;68.07
35649;BME280;21768;48.562;13.414;2022-08-19T01:07:34;96725.06;;;22.12;68.22
35649;BME280;21768;48.562;13.414;2022-08-19T01:10:00;96740.53;;;22.15;68.43
35649;BME280;21768;48.562;13.414;2022-08-19T01:12:25;96730.22;;;22.12;68.05
35649;BME280;21768;48.562;13.414;2022-08-19T01:14:51;96733.66;;;22.14;68.42
35649;BME280;21768;48.562;13.414;2022-08-19T01:17:18;96733.66;;;22.14;68.20
35649;BME280;21768;48.562;13.414;2022-08-19T01:19:45;96740.53;;;22.15;67.92
35649;BME280;21768;48.562;13.414;2022-08-19T01:24:37;96744.84;;;22.19;68.20
35649;BME280;21768;48.562;13.414;2022-08-19T01:27:07;96744.03;;;22.21;68.30
35649;BME280;21768;48.562;13.414;2022-08-19T01:29:33;96742.34;;;22.25;67.91
35649;BME280;21768;48.562;13.414;2022-08-19T01:32:00;96736.34;;;22.26;67.79
35649;BME280;21768;48.562;13.414;2022-08-19T01:34:26;96720.09;;;22.30;67.84
35649;BME280;21768;48.562;13.414;2022-08-19T01:36:51;96727.81;;;22.33;67.69
35649;BME280;21768;48.562;13.414;2022-08-19T01:39:22;96720.13;;;22.36;67.55
35649;BME280;21768;48.562;13.414;2022-08-19T01:41:48;96725.31;;;22.40;67.83
35649;BME280;21768;48.562;13.414;2022-08-19T01:44:15;96735.63;;;22.42;67.64
35649;BME280;21768;48.562;13.414;2022-08-19T01:46:42;96726.16;;;22.38;67.50
35649;BME280;21768;48.562;13.414;2022-08-19T01:51:34;96730.47;;;22.40;67.59
35649;BME280;21768;48.562;13.414;2022-08-19T01:54:00;96735.63;;;22.42;67.63
35649;BME280;21768;48.562;13.414;2022-08-19T01:56:25;96734.78;;;22.45;67.70
35649;BME280;21768;48.562;13.414;2022-08-19T01:58:55;96742.50;;;22.45;67.73
35649;BME280;21768;48.562;13.414;2022-08-19T02:01:21;96748.53;;;22.48;67.58
35649;BME280;21768;48.562;13.414;2022-08-19T02:03:46;96754.56;;;22.50;67.69
35649;BME280;21768;48.562;13.414;2022-08-19T02:06:12;96751.13;;;22.51;67.62
35649;BME280;21768;48.562;13.414;2022-08-19T02:08:39;96747.69;;;22.49;67.42
35649;BME280;21768;48.562;13.414;2022-08-19T02:11:06;96729.66;;;22.48;67.46
35649;BME280;21768;48.562;13.414;2022-08-19T02:13:32;96724.53;;;22.48;67.57
35649;BME280;21768;48.562;13.414;2022-08-19T02:15:57;96724.50;;;22.46;67.46
35649;BME280;21768;48.562;13.414;2022-08-19T02:18:23;96727.88;;;22.39;67.54
35649;BME280;21768;48.562;13.414;2022-08-19T02:20:48;96732.19;;;22.40;67.87
35649;BME280;21768;48.562;13.414;2022-08-19T02:23:15;96722.72;;;22.37;67.83
35649;BME280;21768;48.562;13.414;2022-08-19T02:25:44;96718.38;;;22.32;67.87
35649;BME280;21768;48.562;13.414;2022-08-19T02:28:10;96708.97;;;22.32;67.75
35649;BME280;21768;48.562;13.414;2022-08-19T02:30:37;96697.84;;;22.35;67.83
35649;BME280;21768;48.562;13.414;2022-08-19T02:33:04;96708.16;;;22.38;67.75
35649;BME280;21768;48.562;13.414;2022-08-19T02:35:30;96703.03;;;22.41;68.03
35649;BME280;21768;48.562;13.414;2022-08-19T02:37:56;96695.34;;;22.44;67.75
35649;BME280;21768;48.562;13.414;2022-08-19T02:40:40;96698.81;;;22.48;67.75
35649;BME280;21768;48.562;13.414;2022-08-19T02:43:07;96699.69;;;22.48;67.58
35649;BME280;21768;48.562;13.414;2022-08-19T02:45:38;96702.25;;;22.50;67.62
35649;BME280;21768;48.562;13.414;2022-08-19T02:48:04;96709.13;;;22.49;67.65
35649;BME280;21768;48.562;13.414;2022-08-19T02:50:31;96721.13;;;22.52;67.87
35649;BME280;21768;48.562;13.414;2022-08-19T02:52:56;96730.56;;;22.51;67.61
35649;BME280;21768;48.562;13.414;2022-08-19T02:55:22;96736.53;;;22.53;67.81
35649;BME280;21768;48.562;13.414;2022-08-19T02:57:48;96746.00;;;22.51;67.79
35649;BME280;21768;48.562;13.414;2022-08-19T03:00:14;96752.81;;;22.49;67.79
35649;BME280;21768;48.562;13.414;2022-08-19T03:02:40;96750.22;;;22.45;67.91
35649;BME280;21768;48.562;13.414;2022-08-19T03:05:08;96744.19;;;22.41;68.03
35649;BME280;21768;48.562;13.414;2022-08-19T03:07:35;96744.97;;;22.35;68.13
35649;BME280;21768;48.562;13.414;2022-08-19T03:10:02;96752.63;;;22.28;68.35
35649;BME280;21768;48.562;13.414;2022-08-19T03:12:28;96738.91;;;22.23;68.44
35649;BME280;21768;48.562;13.414;2022-08-19T03:14:53;96738.91;;;22.23;68.50
35649;BME280;21768;48.562;13.414;2022-08-19T03:17:19;96745.78;;;22.30;68.57
35649;BME280;21768;48.562;13.414;2022-08-19T03:19:45;96744.09;;;22.32;68.30
35649;BME280;21768;48.562;13.414;2022-08-19T03:22:10;96739.78;;;22.28;68.31
35649;BME280;21768;48.562;13.414;2022-08-19T03:24:36;96732.09;;;22.31;68.31
35649;BME280;21768;48.562;13.414;2022-08-19T03:27:02;96745.84;;;22.34;68.36
35649;BME280;21768;48.562;13.414;2022-08-19T03:29:30;96742.44;;;22.37;68.17
35649;BME280;21768;48.562;13.414;2022-08-19T03:31:58;96757.03;;;22.41;68.25
35649;BME280;21768;48.562;13.414;2022-08-19T03:34:29;96759.59;;;22.41;68.20
35649;BME280;21768;48.562;13.414;2022-08-19T03:36:57;96746.75;;;22.43;68.12
35649;BME280;21768;48.562;13.414;2022-08-19T03:39:24;96757.94;;;22.45;68.25
35649;BME280;21768;48.562;13.414;2022-08-19T03:41:51;96761.34;;;22.45;68.19
35649;BME280;21768;48.562;13.414;2022-08-19T03:44:20;96763.06;;;22.45;68.01
35649;BME280;21768;48.562;13.414;2022-08-19T03:46:50;96761.34;;;22.44;68.14
35649;BME280;21768;48.562;13.414;2022-08-19T03:49:16;96761.34;;;22.45;68.26
35649;BME280;21768;48.562;13.414;2022-08-19T03:51:42;96770.78;;;22.43;68.13
35649;BME280;21768;48.562;13.414;2022-08-19T03:54:10;96785.38;;;22.47;68.29
35649;BME280;21768;48.562;13.414;2022-08-19T03:56:38;96784.53;;;22.50;68.08
35649;BME280;21768;48.562;13.414;2022-08-19T03:59:05;96792.25;;;22.48;68.20
35649;BME280;21768;48.562;13.414;2022-08-19T04:01:31;96790.50;;;22.44;68.31
35649;BME280;21768;48.562;13.414;2022-08-19T04:03:58;96781.94;;;22.45;68.31
35649;BME280;21768;48.562;13.414;2022-08-19T04:06:30;96791.31;;;22.40;68.28
35649;BME280;21768;48.562;13.414;2022-08-19T04:08:57;96802.47;;;22.42;68.60
35649;BME280;21768;48.562;13.414;2022-08-19T04:11:26;96810.19;;;22.44;68.30
35649;BME280;21768;48.562;13.414;2022-08-19T04:13:53;96816.16;;;22.41;68.79
35649;BME280;21768;48.562;13.414;2022-08-19T04:16:23;96827.34;;;22.43;68.53
35649;BME280;21768;48.562;13.414;2022-08-19T04:18:50;96820.50;;;22.47;68.37
35649;BME280;21768;48.562;13.414;2022-08-19T04:21:21;96826.50;;;22.47;68.29
35649;BME280;21768;48.562;13.414;2022-08-19T04:23:47;96836.69;;;22.38;68.79
35649;BME280;21768;48.562;13.414;2022-08-19T04:26:28;96840.09;;;22.34;69.05
35649;BME280;21768;48.562;13.414;2022-08-19T04:28:56;96835.81;;;22.36;68.83
35649;BME280;21768;48.562;13.414;2022-08-19T04:31:24;96846.13;;;22.37;68.72
35649;BME280;21768;48.562;13.414;2022-08-19T04:33:59;96849.56;;;22.38;68.70
35649;BME280;21768;48.562;13.414;2022-08-19T04:38:57;96856.31;;;22.28;68.88
35649;BME280;21768;48.562;13.414;2022-08-19T04:41:23;96884.50;;;22.21;69.27
35649;BME280;21768;48.562;13.414;2022-08-19T04:44:08;96883.56;;;22.14;69.68
35649;BME280;21768;48.562;13.414;2022-08-19T04:46:34;96881.03;;;22.16;69.46
35649;BME280;21768;48.562;13.414;2022-08-19T04:49:01;96893.00;;;22.14;69.50
35649;BME280;21768;48.562;13.414;2022-08-19T04:51:26;96893.88;;;22.16;69.71
35649;BME280;21768;48.562;13.414;2022-08-19T04:53:52;96894.81;;;22.21;69.62
35649;BME280;21768;48.562;13.414;2022-08-19T04:56:20;96890.56;;;22.24;69.44
35649;BME280;21768;48.562;13.414;2022-08-19T04:58:49;96885.41;;;22.27;69.07
35649;BME280;21768;48.562;13.414;2022-08-19T05:01:34;96886.28;;;22.25;69.23
35649;BME280;21768;48.562;13.414;2022-08-19T05:04:03;96882.91;;;22.32;69.28
35649;BME280;21768;48.562;13.414;2022-08-19T05:06:30;96885.50;;;22.33;69.13
35649;BME280;21768;48.562;13.414;2022-08-19T05:08:58;96890.59;;;22.29;69.31
35649;BME280;21768;48.562;13.414;2022-08-19T05:11:26;96894.88;;;22.27;69.42
35649;BME280;21768;48.562;13.414;2022-08-19T05:13:54;96894.88;;;22.30;69.33
35649;BME280;21768;48.562;13.414;2022-08-19T05:16:21;96879.44;;;22.27;69.08
35649;BME280;21768;48.562;13.414;2022-08-19T05:18:47;96887.13;;;22.24;69.59
35649;BME280;21768;48.562;13.414;2022-08-19T05:21:32;96890.59;;;22.30;69.16
35649;BME280;21768;48.562;13.414;2022-08-19T05:24:17;96883.78;;;22.32;69.24
35649;BME280;21768;48.562;13.414;2022-08-19T05:26:46;96876.06;;;22.34;68.79
35649;BME280;21768;48.562;13.414;2022-08-19T05:29:13;96865.78;;;22.34;68.83
35649;BME280;21768;48.562;13.414;2022-08-19T05:31:39;96862.38;;;22.35;68.73
35649;BME280;21768;48.562;13.414;2022-08-19T05:34:06;96846.06;;;22.31;68.83
35649;BME280;21768;48.562;13.414;2022-08-19T05:36:42;96847.78;;;22.34;68.70
35649;BME280;21768;48.562;13.414;2022-08-19T05:39:11;96836.75;;;22.41;68.63
35649;BME280;21768;48.562;13.414;2022-08-19T05:41:42;96829.91;;;22.43;68.70
35649;BME280;21768;48.562;13.414;2022-08-19T05:44:07;96805.91;;;22.44;68.43
35649;BME280;21768;48.562;13.414;2022-08-19T05:46:36;96799.91;;;22.44;68.46
35649;BME280;21768;48.562;13.414;2022-08-19T05:49:03;96787.09;;;22.48;68.48
35649;BME280;21768;48.562;13.414;2022-08-19T05:51:30;96784.56;;;22.51;68.34
35649;BME280;21768;48.562;13.414;2022-08-19T05:53:56;96780.28;;;22.56;68.49
35649;BME280;21768;48.562;13.414;2022-08-19T05:56:23;96779.44;;;22.57;68.35
35649;BME280;21768;48.562;13.414;2022-08-19T05:58:48;96775.19;;;22.59;68.02
35649;BME280;21768;48.562;13.414;2022-08-19T06:01:17;96765.75;;;22.60;68.35
35649;BME280;21768;48.562;13.414;2022-08-19T06:03:43;96750.34;;;22.61;68.13
35649;BME280;21768;48.562;13.414;2022-08-19T06:06:11;96752.94;;;22.64;68.37
35649;BME280;21768;48.562;13.414;2022-08-19T06:08:37;96760.66;;;22.66;68.19
35649;BME280;21768;48.562;13.414;2022-08-19T06:13:49;96782.13;;;22.69;68.42
35649;BME280;21768;48.562;13.414;2022-08-19T06:16:17;96754.69;;;22.68;68.57
35649;BME280;21768;48.562;13.414;2022-08-19T06:18:46;96744.44;;;22.73;68.65
35649;BME280;21768;48.562;13.414;2022-08-19T06:21:12;96750.47;;;22.78;68.87
35649;BME280;21768;48.562;13.414;2022-08-19T06:23:37;96762.53;;;22.84;68.48
35649;BME280;21768;48.562;13.414;2022-08-19T06:26:03;96771.97;;;22.85;68.09
35649;BME280;21768;48.562;13.414;2022-08-19T06:28:29;96789.97;;;22.85;68.38
35649;BME280;21768;48.562;13.414;2022-08-19T06:30:54;96792.53;;;22.85;68.51
35649;BME280;21768;48.562;13.414;2022-08-19T06:33:19;96793.44;;;22.88;68.27
35649;BME280;21768;48.562;13.414;2022-08-19T06:35:45;96791.72;;;22.87;68.26
35649;BME280;21768;48.562;13.414;2022-08-19T06:38:10;96794.34;;;22.96;68.32
35649;BME280;21768;48.562;13.414;2022-08-19T06:40:36;96790.13;;;23.07;68.00
35649;BME280;21768;48.562;13.414;2022-08-19T06:43:03;96785.88;;;23.14;67.73
35649;BME280;21768;48.562;13.414;2022-08-19T06:45:28;96784.19;;;23.16;67.24
35649;BME280;21768;48.562;13.414;2022-08-19T06:47:54;96786.75;;;23.18;67.28
35649;BME280;21768;48.562;13.414;2022-08-19T06:50:23;96791.91;;;23.16;67.35
35649;BME280;21768;48.562;13.414;2022-08-19T06:52:49;96784.19;;;23.19;67.63
35649;BME280;21768;48.562;13.414;2022-08-19T06:55:15;96791.94;;;23.21;67.02
35649;BME280;21768;48.562;13.414;2022-08-19T06:57:41;96786.78;;;23.21;67.16
35649;BME280;21768;48.562;13.414;2022-08-19T07:00:08;96796.22;;;23.26;67.16
35649;BME280;21768;48.562;13.414;2022-08-19T07:02:43;96796.28;;;23.35;67.01
35649;BME280;21768;48.562;13.414;2022-08-19T07:05:09;96806.69;;;23.51;67.27
35649;BME280;21768;48.562;13.414;2022-08-19T07:07:35;96811.94;;;23.70;65.87
35649;BME280;21768;48.562;13.414;2022-08-19T07:10:01;96812.00;;;23.90;65.94
35649;BME280;21768;48.562;13.414;2022-08-19T07:12:31;96815.47;;;24.04;64.07
35649;BME280;21768;48.562;13.414;2022-08-19T07:15:00;96808.59;;;24.03;64.45
35649;BME280;21768;48.562;13.414;2022-08-19T07:17:26;96821.47;;;24.00;64.22
35649;BME280;21768;48.562;13.414;2022-08-19T07:19:52;96817.16;;;23.90;64.76
35649;BME280;21768;48.562;13.414;2022-08-19T07:22:18;96825.75;;;23.86;64.52
35649;BME280;21768;48.562;13.414;2022-08-19T07:24:45;96836.06;;;23.89;64.73
35649;BME280;21768;48.562;13.414;2022-08-19T07:27:13;96840.34;;;23.89;65.39
35649;BME280;21768;48.562;13.414;2022-08-19T07:29:39;96847.19;;;23.79;65.14
35649;BME280;21768;48.562;13.414;2022-08-19T07:32:05;96848.00;;;23.66;65.33
35649;BME280;21768;48.562;13.414;2022-08-19T07:34:32;96841.16;;;23.72;66.09
35649;BME280;21768;48.562;13.414;2022-08-19T07:37:01;96834.34;;;23.90;65.83
35649;BME280;21768;48.562;13.414;2022-08-19T07:39:31;96835.25;;;23.98;65.16
35649;BME280;21768;48.562;13.414;2022-08-19T07:41:59;96830.06;;;23.95;65.01
35649;BME280;21768;48.562;13.414;2022-08-19T07:44:25;96842.91;;;23.84;64.87
35649;BME280;21768;48.562;13.414;2022-08-19T07:46:53;96840.28;;;23.77;65.21
35649;BME280;21768;48.562;13.414;2022-08-19T07:49:21;96860.06;;;23.73;65.46
35649;BME280;21768;48.562;13.414;2022-08-19T07:51:50;96847.19;;;23.79;65.38
35649;BME280;21768;48.562;13.414;2022-08-19T07:54:16;96843.75;;;23.80;64.96
35649;BME280;21768;48.562;13.414;2022-08-19T07:56:42;96833.38;;;23.63;64.62
35649;BME280;21768;48.562;13.414;2022-08-19T07:59:07;96828.22;;;23.62;65.04
35649;BME280;21768;48.562;13.414;2022-08-19T08:01:34;96835.13;;;23.67;65.16
35649;BME280;21768;48.562;13.414;2022-08-19T08:04:00;96820.53;;;23.77;64.56
35649;BME280;21768;48.562;13.414;2022-08-19T08:06:44;96810.28;;;23.85;64.09
35649;BME280;21768;48.562;13.414;2022-08-19T08:09:32;96805.16;;;23.95;64.18
35649;BME280;21768;48.562;13.414;2022-08-19T08:12:04;96804.31;;;24.05;64.12
35649;BME280;21768;48.562;13.414;2022-08-19T08:14:41;96794.03;;;24.15;63.40
35649;BME280;21768;48.562;13.414;2022-08-19T08:17:08;96794.91;;;24.21;63.82
35649;BME280;21768;48.562;13.414;2022-08-19T08:19:34;96794.94;;;24.26;63.46
35649;BME280;21768;48.562;13.414;2022-08-19T08:22:01;96803.53;;;24.31;64.11
35649;BME280;21768;48.562;13.414;2022-08-19T08:24:29;96798.41;;;24.40;63.71
35649;BME280;21768;48.562;13.414;2022-08-19T08:27:00;96794.97;;;24.46;63.51
35649;BME280;21768;48.562;13.414;2022-08-19T08:29:27;96800.13;;;24.46;62.84
35649;BME280;21768;48.562;13.414;2022-08-19T08:31:53;96800.13;;;24.44;63.03
35649;BME280;21768;48.562;13.414;2022-08-19T08:34:19;96798.41;;;24.46;62.74
35649;BME280;21768;48.562;13.414;2022-08-19T08:36:46;96794.13;;;24.48;62.48
35649;BME280;21768;48.562;13.414;2022-08-19T08:39:14;96802.69;;;24.52;62.24
35649;BME280;21768;48.562;13.414;2022-08-19T08:41:44;96802.69;;;24.52;62.47
35649;BME280;21768;48.562;13.414;2022-08-19T08:44:20;96797.53;;;24.59;62.54
35649;BME280;21768;48.562;13.414;2022-08-19T08:46:49;96794.97;;;24.65;62.47
35649;BME280;21768;48.562;13.414;2022-08-19T08:52:08;96805.28;;;24.62;62.54
35649;BME280;21768;48.562;13.414;2022-08-19T08:54:41;96809.59;;;24.59;62.89
35649;BME280;21768;48.562;13.414;2022-08-19T08:57:14;96815.59;;;24.56;62.50
35649;BME280;21768;48.562;13.414;2022-08-19T08:59:41;96819.91;;;24.56;62.79
35649;BME280;21768;48.562;13.414;2022-08-19T09:02:08;96817.31;;;24.54;62.66
35649;BME280;21768;48.562;13.414;2022-08-19T09:04:38;96814.75;;;24.57;62.30
35649;BME280;21768;48.562;13.414;2022-08-19T09:09:43;96823.34;;;24.76;62.28
35649;BME280;21768;48.562;13.414;2022-08-19T09:14:53;96824.22;;;25.01;61.76
35649;BME280;21768;48.562;13.414;2022-08-19T09:17:24;96825.94;;;25.14;62.26
35649;BME280;21768;48.562;13.414;2022-08-19T09:20:18;96837.13;;;25.16;61.83
35649;BME280;21768;48.562;13.414;2022-08-19T09:22:44;96841.44;;;25.23;61.52
35649;BME280;21768;48.562;13.414;2022-08-19T09:25:11;96836.22;;;25.31;61.23
35649;BME280;21768;48.562;13.414;2022-08-19T09:27:38;96841.41;;;25.29;61.52
35649;BME280;21768;48.562;13.414;2022-08-19T09:30:06;96843.97;;;25.28;61.80
35649;BME280;21768;48.562;13.414;2022-08-19T09:32:32;96843.13;;;25.27;60.97
35649;BME280;21768;48.562;13.414;2022-08-19T09:34:58;96836.28;;;25.20;60.41
35649;BME280;21768;48.562;13.414;2022-08-19T09:37:26;96842.28;;;25.13;61.05
35649;BME280;21768;48.562;13.414;2022-08-19T09:39:52;96832.81;;;25.12;60.99
35649;BME280;21768;48.562;13.414;2022-08-19T09:42:18;96838.00;;;25.18;60.78
35649;BME280;21768;48.562;13.414;2022-08-19T09:44:44;96828.47;;;25.25;60.80
35649;BME280;21768;48.562;13.414;2022-08-19T09:47:12;96833.66;;;25.34;60.71
35649;BME280;21768;48.562;13.414;2022-08-19T09:49:38;96833.63;;;25.38;60.01
35649;BME280;21768;48.562;13.414;2022-08-19T09:52:05;96835.34;;;25.47;60.27
35649;BME280;21768;48.562;13.414;2022-08-19T09:54:33;96829.25;;;25.60;60.28
35649;BME280;21768;48.562;13.414;2022-08-19T09:56:59;96825.78;;;25.81;59.35
35649;BME280;21768;48.562;13.414;2022-08-19T09:59:25;96813.56;;;26.12;58.57
35649;BME280;21768;48.562;13.414;2022-08-19T10:01:51;96810.75;;;26.49;58.17
35649;BME280;21768;48.562;13.414;2022-08-19T10:04:17;96816.66;;;26.72;55.94
35649;BME280;21768;48.562;13.414;2022-08-19T10:06:42;96816.28;;;27.16;55.53
35649;BME280;21768;48.562;13.414;2022-08-19T10:09:09;96808.50;;;27.94;53.79
35649;BME280;21768;48.562;13.414;2022-08-19T10:11:36;96816.59;;;28.36;51.84
35649;BME280;21768;48.562;13.414;2022-08-19T10:14:04;96834.13;;;28.17;51.55
35649;BME280;21768;48.562;13.414;2022-08-19T10:16:32;96835.13;;;28.08;51.76
35649;BME280;21768;48.562;13.414;2022-08-19T10:18:58;96823.97;;;28.00;52.19
35649;BME280;21768;48.562;13.414;2022-08-19T10:21:28;96822.34;;;27.93;51.01
35649;BME280;21768;48.562;13.414;2022-08-19T10:23:57;96827.63;;;27.84;52.19
35649;BME280;21768;48.562;13.414;2022-08-19T10:26:28;96833.53;;;27.97;51.62
35649;BME280;21768;48.562;13.414;2022-08-19T10:28:55;96831.56;;;28.16;51.56
35649;BME280;21768;48.562;13.414;2022-08-19T10:31:27;96827.75;;;28.42;50.18
35649;BME280;21768;48.562;13.414;2022-08-19T10:33:54;96827.84;;;28.93;49.01
35649;BME280;21768;48.562;13.414;2022-08-19T10:36:24;96834.84;;;29.39;49.19
35649;BME280;21768;48.562;13.414;2022-08-19T10:38:53;96821.53;;;30.00;47.18
35649;BME280;21768;48.562;13.414;2022-08-19T10:41:23;96812.66;;;30.86;44.22
35649;BME280;21768;48.562;13.414;2022-08-19T10:43:53;96801.94;;;30.97;44.83
35649;BME280;21768;48.562;13.414;2022-08-19T10:46:21;96799.41;;;30.94;43.97
35649;BME280;21768;48.562;13.414;2022-08-19T10:48:47;96794.81;;;31.99;41.96
35649;BME280;21768;48.562;13.414;2022-08-19T10:51:13;96789.75;;;32.52;41.21
35649;BME280;21768;48.562;13.414;2022-08-19T10:53:58;96784.63;;;32.20;41.36
35649;BME280;21768;48.562;13.414;2022-08-19T10:56:24;96773.63;;;31.81;41.85
35649;BME280;21768;48.562;13.414;2022-08-19T10:59:08;96769.47;;;31.10;42.98
35649;BME280;21768;48.562;13.414;2022-08-19T11:01:35;96766.97;;;30.71;43.72
35649;BME280;21768;48.562;13.414;2022-08-19T11:04:02;96759.91;;;30.76;43.87
35649;BME280;21768;48.562;13.414;2022-08-19T11:06:28;96765.44;;;30.64;44.04
35649;BME280;21768;48.562;13.414;2022-08-19T11:08:54;96761.97;;;30.25;44.05
35649;BME280;21768;48.562;13.414;2022-08-19T11:11:20;96750.13;;;30.14;44.24
35649;BME280;21768;48.562;13.414;2022-08-19T11:13:47;96754.41;;;30.52;43.27
35649;BME280;21768;48.562;13.414;2022-08-19T11:16:21;96742.00;;;30.97;42.30
35649;BME280;21768;48.562;13.414;2022-08-19T11:18:50;96728.53;;;33.60;37.62
35649;BME280;21768;48.562;13.414;2022-08-19T11:21:20;96720.91;;;35.66;33.84
35649;BME280;21768;48.562;13.414;2022-08-19T11:23:48;96724.63;;;36.00;33.14
35649;BME280;21768;48.562;13.414;2022-08-19T11:26:15;96742.31;;;34.76;34.46
35649;BME280;21768;48.562;13.414;2022-08-19T11:28:41;96737.38;;;33.33;35.73
35649;BME280;21768;48.562;13.414;2022-08-19T11:31:16;96730.75;;;32.17;38.34
35649;BME280;21768;48.562;13.414;2022-08-19T11:33:42;96718.53;;;31.60;39.65
35649;BME280;21768;48.562;13.414;2022-08-19T11:36:08;96728.75;;;31.38;39.06
35649;BME280;21768;48.562;13.414;2022-08-19T11:38:34;96727.41;;;31.24;39.58
35649;BME280;21768;48.562;13.414;2022-08-19T11:41:04;96718.91;;;31.17;39.98
35649;BME280;21768;48.562;13.414;2022-08-19T11:43:31;96735.09;;;30.94;40.84
35649;BME280;21768;48.562;13.414;2022-08-19T11:45:57;96742.16;;;30.55;40.88
35649;BME280;21768;48.562;13.414;2022-08-19T11:48:24;96738.38;;;30.33;41.40
35649;BME280;21768;48.562;13.414;2022-08-19T11:50:51;96721.09;;;30.29;41.84
35649;BME280;21768;48.562;13.414;2022-08-19T11:53:19;96712.47;;;30.27;41.98
35649;BME280;21768;48.562;13.414;2022-08-19T11:55:46;96727.03;;;30.35;41.93
35649;BME280;21768;48.562;13.414;2022-08-19T11:58:13;96742.78;;;30.29;42.32
35649;BME280;21768;48.562;13.414;2022-08-19T12:00:39;96745.50;;;30.25;42.54
35649;BME280;21768;48.562;13.414;2022-08-19T12:03:05;96748.69;;;30.37;42.12
35649;BME280;21768;48.562;13.414;2022-08-19T12:05:31;96748.13;;;30.23;42.05
35649;BME280;21768;48.562;13.414;2022-08-19T12:07:57;96741.69;;;30.02;41.57
35649;BME280;21768;48.562;13.414;2022-08-19T12:10:22;96731.56;;;29.89;41.51
35649;BME280;21768;48.562;13.414;2022-08-19T12:12:48;96735.56;;;29.63;41.25
35649;BME280;21768;48.562;13.414;2022-08-19T12:15:14;96740.03;;;29.57;42.17
35649;BME280;21768;48.562;13.414;2022-08-19T12:17:43;96736.56;;;29.58;42.80
35649;BME280;21768;48.562;13.414;2022-08-19T12:20:12;96734.19;;;29.87;41.55
35649;BME280;21768;48.562;13.414;2022-08-19T12:22:39;96718.84;;;29.75;42.02
35649;BME280;21768;48.562;13.414;2022-08-19T12:25:07;96720.03;;;30.00;41.73
35649;BME280;21768;48.562;13.414;2022-08-19T12:27:33;96718.38;;;30.35;41.65
35649;BME280;21768;48.562;13.414;2022-08-19T12:30:01;96715.44;;;30.47;40.60
35649;BME280;21768;48.562;13.414;2022-08-19T12:32:27;96709.09;;;30.60;40.71
35649;BME280;21768;48.562;13.414;2022-08-19T12:34:53;96708.94;;;30.66;41.34
35649;BME280;21768;48.562;13.414;2022-08-19T12:37:19;96704.00;;;30.54;40.44
35649;BME280;21768;48.562;13.414;2022-08-19T12:39:45;96699.63;;;30.19;40.64
35649;BME280;21768;48.562;13.414;2022-08-19T12:42:12;96712.13;;;30.05;40.77
35649;BME280;21768;48.562;13.414;2022-08-19T12:44:39;96713.38;;;29.87;41.18
35649;BME280;21768;48.562;13.414;2022-08-19T12:47:05;96713.53;;;29.79;41.84
35649;BME280;21768;48.562;13.414;2022-08-19T12:49:32;96725.25;;;29.59;40.99
35649;BME280;21768;48.562;13.414;2022-08-19T12:52:00;96726.34;;;29.47;41.06
35649;BME280;21768;48.562;13.414;2022-08-19T12:54:26;96733.44;;;29.40;41.49
35649;BME280;21768;48.562;13.414;2022-08-19T12:56:52;96734.31;;;29.39;42.47
35649;BME280;21768;48.562;13.414;2022-08-19T12:59:17;96726.63;;;29.33;41.91
35649;BME280;21768;48.562;13.414;2022-08-19T13:01:45;96721.53;;;29.27;42.03
35649;BME280;21768;48.562;13.414;2022-08-19T13:04:10;96724.19;;;29.24;42.52
35649;BME280;21768;48.562;13.414;2022-08-19T13:06:36;96723.34;;;29.22;42.45
35649;BME280;21768;48.562;13.414;2022-08-19T13:09:03;96721.66;;;29.21;42.72
35649;BME280;21768;48.562;13.414;2022-08-19T13:11:29;96723.34;;;29.22;43.13